MOL Explorer — 3EKT8 — position and weather

sailwx.info

Track history (hours):
 
Tides and Currents Weather Stations Pressure Air Temp Water Temp Dewpoint Dewpoint Depression Visibility Wind Speed Wind Dir Waves Ship Positions

MOL Explorer

Last reported at 2014-Oct-20 14:21 UTC. Time now 2014-Oct-22 00:12 UTC.
Position N 34°56' E 140°11'.

Length 293 m; draft 11.6 m.

Type: Ship (hazmat cat A). MMSI: 372827000.

Date/timePositionNaut miles runAvg speedWind from/ knotsBaromVisibWave heightAir tempDewpointWater temp
2014-Oct-20 14:21N 34°56' E 140°11'2411.0
2014-Oct-20 12:10N 35°04' E 139°43'914.5
2014-Oct-20 11:33N 35°13' E 139°46'1212.2
2014-Oct-20 10:33N 35°25' E 139°44'1110.7
2014-Oct-20 09:30N 35°36' E 139°46'0 0.2
2014-Oct-20 08:07N 35°36' E 139°46'0 0.0
2014-Oct-20 07:22N 35°36' E 139°46'0 0.0
2014-Oct-20 06:28N 35°36' E 139°46'0 0.0
2014-Oct-20 05:31N 35°36' E 139°46'0 0.0
2014-Oct-20 00:16N 35°36' E 139°46'0 0.0
2014-Oct-19 23:16N 35°36' E 139°46'0 0.0
2014-Oct-19 22:31N 35°36' E 139°46'0 0.0
2014-Oct-19 21:31N 35°36' E 139°46'0 0.0
2014-Oct-19 20:28N 35°36' E 139°46'0 0.0
2014-Oct-19 19:31N 35°36' E 139°46'0 0.0
2014-Oct-19 18:31N 35°36' E 139°46'0 0.0
2014-Oct-19 17:28N 35°36' E 139°46'0 0.0
2014-Oct-19 16:25N 35°36' E 139°46'0 0.1
2014-Oct-19 15:31N 35°36' E 139°46'7 7.0
2014-Oct-19 14:33N 35°32' E 139°52'1413.9
2014-Oct-19 13:33N 35°19' E 139°44'1211.5
2014-Oct-19 12:33N 35°08' E 139°46'  
2014-Oct-17 07:16N 33°49' E 134°56'912.4
2014-Oct-17 06:31N 33°58' E 134°55'1212.8
2014-Oct-17 05:33N 34°11' E 134°57'1414.0
2014-Oct-17 04:33N 34°24' E 135°02'1717.1
2014-Oct-17 03:33N 34°36' E 135°16'3 3.2
2014-Oct-17 02:33N 34°39' E 135°15'0 0.0
2014-Oct-17 01:33N 34°39' E 135°15'0 0.0
2014-Oct-17 00:33N 34°39' E 135°15'0 0.0
2014-Oct-16 23:33N 34°39' E 135°15'0 0.0
2014-Oct-16 22:33N 34°39' E 135°15'0 0.0
2014-Oct-16 21:33N 34°39' E 135°15'0 0.0
2014-Oct-16 20:33N 34°39' E 135°15'0 0.0
2014-Oct-16 19:33N 34°39' E 135°15'0 0.0
2014-Oct-16 18:33N 34°39' E 135°15'0 0.0
2014-Oct-16 17:21N 34°39' E 135°15'0 0.0
2014-Oct-16 16:33N 34°39' E 135°15'0 0.0
2014-Oct-16 15:27N 34°39' E 135°15'0 0.1
2014-Oct-16 14:33N 34°39' E 135°15'0 0.0
2014-Oct-16 13:27N 34°39' E 135°15'0 0.0
2014-Oct-16 12:15N 34°39' E 135°15'0 0.0
2014-Oct-16 11:33N 34°39' E 135°15'0 0.0
2014-Oct-16 10:33N 34°39' E 135°15'0 0.0
2014-Oct-16 09:33N 34°39' E 135°15'1 0.8
2014-Oct-16 08:33N 34°39' E 135°16'6 6.1
2014-Oct-16 07:33N 34°33' E 135°14'1515.4
2014-Oct-16 06:33N 34°21' E 135°03'1413.7
2014-Oct-16 05:33N 34°07' E 134°60'11 9.8
2014-Oct-16 04:27N 33°57' E 134°58'24413.7
2014-Oct-15 10:33N 35°05' E 139°43'1313.2
2014-Oct-15 09:33N 35°18' E 139°44'1212.4
2014-Oct-15 08:33N 35°29' E 139°51'8 8.1
2014-Oct-15 07:33N 35°36' E 139°46'0 0.0
2014-Oct-15 02:14N 35°36' E 139°46'0 0.0
2014-Oct-15 01:29N 35°36' E 139°46'0 0.0
2014-Oct-15 00:29N 35°36' E 139°46'0 0.0
2014-Oct-14 23:32N 35°36' E 139°46'0 0.1
2014-Oct-14 22:33N 35°36' E 139°46'8 8.4
2014-Oct-14 21:34N 35°30' E 139°52'1313.0
2014-Oct-14 20:34N 35°18' E 139°45'1111.1
2014-Oct-14 19:34N 35°07' E 139°46'  
Track history (hours):
 
Tides and Currents Weather Stations Pressure Air Temp Water Temp Dewpoint Dewpoint Depression Visibility Wind Speed Wind Dir Waves Ship Positions

MOL Explorer

Last reported at 2014-Oct-20 14:21 UTC. Time now 2014-Oct-22 00:12 UTC.
Position N 34°56' E 140°11'.

Length 293 m; draft 11.6 m.

Type: Ship (hazmat cat A). MMSI: 372827000.

Date/timePositionNaut miles runAvg speedWind from/ knotsBaromVisibWave heightAir tempDewpointWater temp
2014-Oct-20 14:21N 34°56' E 140°11'2411.0
2014-Oct-20 12:10N 35°04' E 139°43'914.5
2014-Oct-20 11:33N 35°13' E 139°46'1212.2
2014-Oct-20 10:33N 35°25' E 139°44'1110.7
2014-Oct-20 09:30N 35°36' E 139°46'0 0.2
2014-Oct-20 08:07N 35°36' E 139°46'0 0.0
2014-Oct-20 07:22N 35°36' E 139°46'0 0.0
2014-Oct-20 06:28N 35°36' E 139°46'0 0.0
2014-Oct-20 05:31N 35°36' E 139°46'0 0.0
2014-Oct-20 00:16N 35°36' E 139°46'0 0.0
2014-Oct-19 23:16N 35°36' E 139°46'0 0.0
2014-Oct-19 22:31N 35°36' E 139°46'0 0.0
2014-Oct-19 21:31N 35°36' E 139°46'0 0.0
2014-Oct-19 20:28N 35°36' E 139°46'0 0.0
2014-Oct-19 19:31N 35°36' E 139°46'0 0.0
2014-Oct-19 18:31N 35°36' E 139°46'0 0.0
2014-Oct-19 17:28N 35°36' E 139°46'0 0.0
2014-Oct-19 16:25N 35°36' E 139°46'0 0.1
2014-Oct-19 15:31N 35°36' E 139°46'7 7.0
2014-Oct-19 14:33N 35°32' E 139°52'1413.9
2014-Oct-19 13:33N 35°19' E 139°44'1211.5
2014-Oct-19 12:33N 35°08' E 139°46'  
2014-Oct-17 07:16N 33°49' E 134°56'912.4
2014-Oct-17 06:31N 33°58' E 134°55'1212.8
2014-Oct-17 05:33N 34°11' E 134°57'1414.0
2014-Oct-17 04:33N 34°24' E 135°02'1717.1
2014-Oct-17 03:33N 34°36' E 135°16'3 3.2
2014-Oct-17 02:33N 34°39' E 135°15'0 0.0
2014-Oct-17 01:33N 34°39' E 135°15'0 0.0
2014-Oct-17 00:33N 34°39' E 135°15'0 0.0
2014-Oct-16 23:33N 34°39' E 135°15'0 0.0
2014-Oct-16 22:33N 34°39' E 135°15'0 0.0
2014-Oct-16 21:33N 34°39' E 135°15'0 0.0
2014-Oct-16 20:33N 34°39' E 135°15'0 0.0
2014-Oct-16 19:33N 34°39' E 135°15'0 0.0
2014-Oct-16 18:33N 34°39' E 135°15'0 0.0
2014-Oct-16 17:21N 34°39' E 135°15'0 0.0
2014-Oct-16 16:33N 34°39' E 135°15'0 0.0
2014-Oct-16 15:27N 34°39' E 135°15'0 0.1
2014-Oct-16 14:33N 34°39' E 135°15'0 0.0
2014-Oct-16 13:27N 34°39' E 135°15'0 0.0
2014-Oct-16 12:15N 34°39' E 135°15'0 0.0
2014-Oct-16 11:33N 34°39' E 135°15'0 0.0
2014-Oct-16 10:33N 34°39' E 135°15'0 0.0
2014-Oct-16 09:33N 34°39' E 135°15'1 0.8
2014-Oct-16 08:33N 34°39' E 135°16'6 6.1
2014-Oct-16 07:33N 34°33' E 135°14'1515.4
2014-Oct-16 06:33N 34°21' E 135°03'1413.7
2014-Oct-16 05:33N 34°07' E 134°60'11 9.8
2014-Oct-16 04:27N 33°57' E 134°58'24413.7
2014-Oct-15 10:33N 35°05' E 139°43'1313.2
2014-Oct-15 09:33N 35°18' E 139°44'1212.4
2014-Oct-15 08:33N 35°29' E 139°51'8 8.1
2014-Oct-15 07:33N 35°36' E 139°46'0 0.0
2014-Oct-15 02:14N 35°36' E 139°46'0 0.0
2014-Oct-15 01:29N 35°36' E 139°46'0 0.0
2014-Oct-15 00:29N 35°36' E 139°46'0 0.0
2014-Oct-14 23:32N 35°36' E 139°46'0 0.1
2014-Oct-14 22:33N 35°36' E 139°46'8 8.4
2014-Oct-14 21:34N 35°30' E 139°52'1313.0
2014-Oct-14 20:34N 35°18' E 139°45'1111.1
2014-Oct-14 19:34N 35°07' E 139°46'  

Dump ship's entire track history